sensor_id;sensor_type;location;lat;lon;timestamp;P1;durP1;ratioP1;P2;durP2;ratioP2
10007;SDS011;5043;41.766;26.204;2024-02-21T00:01:38;20.50;;;11.25;;
10007;SDS011;5043;41.766;26.204;2024-02-21T00:04:04;21.63;;;14.50;;
10007;SDS011;5043;41.766;26.204;2024-02-21T00:06:29;23.77;;;14.45;;
10007;SDS011;5043;41.766;26.204;2024-02-21T00:08:55;18.50;;;11.40;;
10007;SDS011;5043;41.766;26.204;2024-02-21T00:11:20;11.20;;;9.52;;
10007;SDS011;5043;41.766;26.204;2024-02-21T00:13:45;10.77;;;8.50;;
10007;SDS011;5043;41.766;26.204;2024-02-21T00:16:11;12.70;;;8.15;;
10007;SDS011;5043;41.766;26.204;2024-02-21T00:18:36;10.85;;;8.15;;
10007;SDS011;5043;41.766;26.204;2024-02-21T00:21:02;9.35;;;7.78;;
10007;SDS011;5043;41.766;26.204;2024-02-21T00:23:28;12.18;;;9.43;;
10007;SDS011;5043;41.766;26.204;2024-02-21T00:25:53;24.55;;;13.55;;
10007;SDS011;5043;41.766;26.204;2024-02-21T00:28:19;32.70;;;22.92;;
10007;SDS011;5043;41.766;26.204;2024-02-21T00:30:45;33.30;;;22.45;;
10007;SDS011;5043;41.766;26.204;2024-02-21T00:33:12;32.17;;;23.27;;
10007;SDS011;5043;41.766;26.204;2024-02-21T00:35:38;30.10;;;21.10;;
10007;SDS011;5043;41.766;26.204;2024-02-21T00:38:04;27.67;;;20.13;;
10007;SDS011;5043;41.766;26.204;2024-02-21T00:40:29;18.02;;;14.25;;
10007;SDS011;5043;41.766;26.204;2024-02-21T00:42:55;13.93;;;11.75;;
10007;SDS011;5043;41.766;26.204;2024-02-21T00:45:20;13.32;;;10.77;;
10007;SDS011;5043;41.766;26.204;2024-02-21T00:47:46;9.50;;;8.07;;
10007;SDS011;5043;41.766;26.204;2024-02-21T00:50:11;10.18;;;8.15;;
10007;SDS011;5043;41.766;26.204;2024-02-21T00:52:37;12.40;;;8.60;;
10007;SDS011;5043;41.766;26.204;2024-02-21T00:55:03;11.10;;;8.15;;
10007;SDS011;5043;41.766;26.204;2024-02-21T00:57:29;10.68;;;8.07;;
10007;SDS011;5043;41.766;26.204;2024-02-21T00:59:54;12.80;;;8.80;;
10007;SDS011;5043;41.766;26.204;2024-02-21T01:02:20;12.85;;;8.65;;
10007;SDS011;5043;41.766;26.204;2024-02-21T01:04:45;10.60;;;9.00;;
10007;SDS011;5043;41.766;26.204;2024-02-21T01:07:11;12.27;;;9.68;;
10007;SDS011;5043;41.766;26.204;2024-02-21T01:09:36;10.80;;;8.30;;
10007;SDS011;5043;41.766;26.204;2024-02-21T01:12:01;10.65;;;8.15;;
10007;SDS011;5043;41.766;26.204;2024-02-21T01:14:28;11.88;;;8.93;;
10007;SDS011;5043;41.766;26.204;2024-02-21T01:16:53;10.02;;;8.05;;
10007;SDS011;5043;41.766;26.204;2024-02-21T01:19:19;10.05;;;8.48;;
10007;SDS011;5043;41.766;26.204;2024-02-21T01:21:44;11.32;;;8.63;;
10007;SDS011;5043;41.766;26.204;2024-02-21T01:24:09;11.15;;;9.23;;
10007;SDS011;5043;41.766;26.204;2024-02-21T01:26:35;13.82;;;9.00;;
10007;SDS011;5043;41.766;26.204;2024-02-21T01:29:00;12.88;;;9.43;;
10007;SDS011;5043;41.766;26.204;2024-02-21T01:31:26;12.52;;;9.85;;
10007;SDS011;5043;41.766;26.204;2024-02-21T01:33:51;15.45;;;9.50;;
10007;SDS011;5043;41.766;26.204;2024-02-21T01:36:16;12.45;;;9.35;;
10007;SDS011;5043;41.766;26.204;2024-02-21T01:38:42;13.88;;;9.40;;
10007;SDS011;5043;41.766;26.204;2024-02-21T01:41:07;13.65;;;9.45;;
10007;SDS011;5043;41.766;26.204;2024-02-21T01:43:33;16.60;;;10.07;;
10007;SDS011;5043;41.766;26.204;2024-02-21T01:45:58;15.02;;;11.70;;
10007;SDS011;5043;41.766;26.204;2024-02-21T01:48:24;25.55;;;16.95;;
10007;SDS011;5043;41.766;26.204;2024-02-21T01:50:50;22.13;;;15.18;;
10007;SDS011;5043;41.766;26.204;2024-02-21T01:53:18;20.33;;;14.73;;
10007;SDS011;5043;41.766;26.204;2024-02-21T01:55:46;17.27;;;12.48;;
10007;SDS011;5043;41.766;26.204;2024-02-21T01:58:15;16.70;;;12.45;;
10007;SDS011;5043;41.766;26.204;2024-02-21T02:00:41;14.60;;;11.57;;
10007;SDS011;5043;41.766;26.204;2024-02-21T02:03:11;18.45;;;12.48;;
10007;SDS011;5043;41.766;26.204;2024-02-21T02:05:44;15.15;;;12.52;;
10007;SDS011;5043;41.766;26.204;2024-02-21T02:08:11;17.35;;;12.18;;
10007;SDS011;5043;41.766;26.204;2024-02-21T02:10:40;18.17;;;13.70;;
10007;SDS011;5043;41.766;26.204;2024-02-21T02:13:07;16.73;;;11.65;;
10007;SDS011;5043;41.766;26.204;2024-02-21T02:15:42;18.55;;;12.25;;
10007;SDS011;5043;41.766;26.204;2024-02-21T02:18:08;22.73;;;11.25;;
10007;SDS011;5043;41.766;26.204;2024-02-21T02:20:35;14.80;;;11.20;;
10007;SDS011;5043;41.766;26.204;2024-02-21T02:23:02;14.73;;;12.20;;
10007;SDS011;5043;41.766;26.204;2024-02-21T02:25:33;13.68;;;10.35;;
10007;SDS011;5043;41.766;26.204;2024-02-21T02:27:59;14.82;;;11.07;;
10007;SDS011;5043;41.766;26.204;2024-02-21T02:30:24;14.77;;;11.32;;
10007;SDS011;5043;41.766;26.204;2024-02-21T02:32:50;17.25;;;10.75;;
10007;SDS011;5043;41.766;26.204;2024-02-21T02:35:15;18.65;;;10.75;;
10007;SDS011;5043;41.766;26.204;2024-02-21T02:37:47;15.25;;;11.30;;
10007;SDS011;5043;41.766;26.204;2024-02-21T02:40:13;17.42;;;12.68;;
10007;SDS011;5043;41.766;26.204;2024-02-21T02:42:38;19.05;;;14.65;;
10007;SDS011;5043;41.766;26.204;2024-02-21T02:45:04;32.42;;;26.42;;
10007;SDS011;5043;41.766;26.204;2024-02-21T02:47:30;22.50;;;18.40;;
10007;SDS011;5043;41.766;26.204;2024-02-21T02:49:55;21.60;;;18.55;;
10007;SDS011;5043;41.766;26.204;2024-02-21T02:52:20;26.98;;;18.08;;
10007;SDS011;5043;41.766;26.204;2024-02-21T02:54:46;26.70;;;17.10;;
10007;SDS011;5043;41.766;26.204;2024-02-21T02:57:16;25.67;;;15.93;;
10007;SDS011;5043;41.766;26.204;2024-02-21T02:59:42;25.67;;;17.55;;
10007;SDS011;5043;41.766;26.204;2024-02-21T03:02:16;18.40;;;14.68;;
10007;SDS011;5043;41.766;26.204;2024-02-21T03:04:41;22.42;;;14.88;;
10007;SDS011;5043;41.766;26.204;2024-02-21T03:07:07;20.02;;;13.98;;
10007;SDS011;5043;41.766;26.204;2024-02-21T03:09:32;17.38;;;12.65;;
10007;SDS011;5043;41.766;26.204;2024-02-21T03:11:58;17.65;;;12.48;;
10007;SDS011;5043;41.766;26.204;2024-02-21T03:14:28;19.15;;;13.10;;
10007;SDS011;5043;41.766;26.204;2024-02-21T03:16:54;15.43;;;12.00;;
10007;SDS011;5043;41.766;26.204;2024-02-21T03:19:19;17.73;;;12.70;;
10007;SDS011;5043;41.766;26.204;2024-02-21T03:21:45;17.48;;;12.45;;
10007;SDS011;5043;41.766;26.204;2024-02-21T03:24:10;20.00;;;12.52;;
10007;SDS011;5043;41.766;26.204;2024-02-21T03:26:36;18.83;;;13.77;;
10007;SDS011;5043;41.766;26.204;2024-02-21T03:29:01;18.65;;;12.27;;
10007;SDS011;5043;41.766;26.204;2024-02-21T03:31:28;18.65;;;13.20;;
10007;SDS011;5043;41.766;26.204;2024-02-21T03:33:53;15.75;;;12.60;;
10007;SDS011;5043;41.766;26.204;2024-02-21T03:36:19;18.90;;;13.50;;
10007;SDS011;5043;41.766;26.204;2024-02-21T03:38:44;15.98;;;11.98;;
10007;SDS011;5043;41.766;26.204;2024-02-21T03:41:10;17.60;;;13.25;;
10007;SDS011;5043;41.766;26.204;2024-02-21T03:43:37;20.67;;;14.00;;
10007;SDS011;5043;41.766;26.204;2024-02-21T03:46:03;15.88;;;12.93;;
10007;SDS011;5043;41.766;26.204;2024-02-21T03:48:29;17.27;;;11.35;;
10007;SDS011;5043;41.766;26.204;2024-02-21T03:50:54;20.00;;;11.85;;
10007;SDS011;5043;41.766;26.204;2024-02-21T03:53:20;20.77;;;11.82;;
10007;SDS011;5043;41.766;26.204;2024-02-21T03:55:45;19.25;;;12.93;;
10007;SDS011;5043;41.766;26.204;2024-02-21T03:58:11;18.23;;;11.70;;
10007;SDS011;5043;41.766;26.204;2024-02-21T04:00:36;15.32;;;11.57;;
10007;SDS011;5043;41.766;26.204;2024-02-21T04:03:02;18.08;;;13.05;;
10007;SDS011;5043;41.766;26.204;2024-02-21T04:05:27;16.73;;;11.15;;
10007;SDS011;5043;41.766;26.204;2024-02-21T04:07:53;13.63;;;9.98;;
10007;SDS011;5043;41.766;26.204;2024-02-21T04:10:19;15.57;;;11.32;;
10007;SDS011;5043;41.766;26.204;2024-02-21T04:12:44;15.48;;;11.63;;
10007;SDS011;5043;41.766;26.204;2024-02-21T04:15:09;16.52;;;12.00;;
10007;SDS011;5043;41.766;26.204;2024-02-21T04:17:36;18.75;;;12.32;;
10007;SDS011;5043;41.766;26.204;2024-02-21T04:20:04;19.58;;;14.50;;
10007;SDS011;5043;41.766;26.204;2024-02-21T04:22:31;19.77;;;13.43;;
10007;SDS011;5043;41.766;26.204;2024-02-21T04:25:00;16.08;;;12.07;;
10007;SDS011;5043;41.766;26.204;2024-02-21T04:27:26;14.98;;;11.48;;
10007;SDS011;5043;41.766;26.204;2024-02-21T04:29:52;14.60;;;11.43;;
10007;SDS011;5043;41.766;26.204;2024-02-21T04:32:18;15.90;;;11.18;;
10007;SDS011;5043;41.766;26.204;2024-02-21T04:34:43;12.68;;;11.32;;
10007;SDS011;5043;41.766;26.204;2024-02-21T04:37:09;20.30;;;13.20;;
10007;SDS011;5043;41.766;26.204;2024-02-21T04:39:34;21.35;;;13.63;;
10007;SDS011;5043;41.766;26.204;2024-02-21T04:41:59;15.50;;;10.50;;
10007;SDS011;5043;41.766;26.204;2024-02-21T04:44:25;15.15;;;10.60;;
10007;SDS011;5043;41.766;26.204;2024-02-21T04:46:50;17.65;;;13.82;;
10007;SDS011;5043;41.766;26.204;2024-02-21T04:49:16;19.52;;;15.10;;
10007;SDS011;5043;41.766;26.204;2024-02-21T04:51:41;17.88;;;14.05;;
10007;SDS011;5043;41.766;26.204;2024-02-21T04:54:07;17.83;;;12.60;;
10007;SDS011;5043;41.766;26.204;2024-02-21T04:56:32;14.18;;;10.85;;
10007;SDS011;5043;41.766;26.204;2024-02-21T04:58:58;15.90;;;12.20;;
10007;SDS011;5043;41.766;26.204;2024-02-21T05:01:23;15.43;;;11.55;;
10007;SDS011;5043;41.766;26.204;2024-02-21T05:03:49;13.60;;;11.65;;
10007;SDS011;5043;41.766;26.204;2024-02-21T05:06:14;20.40;;;12.27;;
10007;SDS011;5043;41.766;26.204;2024-02-21T05:08:40;16.85;;;12.85;;
10007;SDS011;5043;41.766;26.204;2024-02-21T05:11:05;20.10;;;14.53;;
10007;SDS011;5043;41.766;26.204;2024-02-21T05:13:31;18.35;;;13.13;;
10007;SDS011;5043;41.766;26.204;2024-02-21T05:15:56;18.58;;;13.23;;
10007;SDS011;5043;41.766;26.204;2024-02-21T05:18:22;20.88;;;14.75;;
10007;SDS011;5043;41.766;26.204;2024-02-21T05:20:47;20.05;;;15.68;;
10007;SDS011;5043;41.766;26.204;2024-02-21T05:23:13;23.55;;;16.40;;
10007;SDS011;5043;41.766;26.204;2024-02-21T05:25:38;20.52;;;16.38;;
10007;SDS011;5043;41.766;26.204;2024-02-21T05:28:04;24.52;;;17.15;;
10007;SDS011;5043;41.766;26.204;2024-02-21T05:30:31;24.25;;;17.52;;
10007;SDS011;5043;41.766;26.204;2024-02-21T05:32:56;27.02;;;17.83;;
10007;SDS011;5043;41.766;26.204;2024-02-21T05:35:28;24.20;;;17.05;;
10007;SDS011;5043;41.766;26.204;2024-02-21T05:37:54;26.90;;;18.38;;
10007;SDS011;5043;41.766;26.204;2024-02-21T05:40:19;32.92;;;20.40;;
10007;SDS011;5043;41.766;26.204;2024-02-21T05:42:45;31.88;;;20.27;;
10007;SDS011;5043;41.766;26.204;2024-02-21T05:45:10;38.97;;;20.65;;
10007;SDS011;5043;41.766;26.204;2024-02-21T05:47:36;33.40;;;19.70;;
10007;SDS011;5043;41.766;26.204;2024-02-21T05:50:04;29.17;;;20.48;;
10007;SDS011;5043;41.766;26.204;2024-02-21T05:52:30;33.85;;;21.15;;
10007;SDS011;5043;41.766;26.204;2024-02-21T05:54:55;47.85;;;24.83;;
10007;SDS011;5043;41.766;26.204;2024-02-21T05:57:21;39.83;;;23.17;;
10007;SDS011;5043;41.766;26.204;2024-02-21T05:59:46;38.65;;;23.45;;
10007;SDS011;5043;41.766;26.204;2024-02-21T06:02:12;30.77;;;23.00;;
10007;SDS011;5043;41.766;26.204;2024-02-21T06:04:37;31.05;;;20.92;;
10007;SDS011;5043;41.766;26.204;2024-02-21T06:07:04;32.55;;;21.25;;
10007;SDS011;5043;41.766;26.204;2024-02-21T06:09:30;21.30;;;17.33;;
10007;SDS011;5043;41.766;26.204;2024-02-21T06:11:55;24.23;;;17.05;;
10007;SDS011;5043;41.766;26.204;2024-02-21T06:14:21;20.05;;;14.98;;
10007;SDS011;5043;41.766;26.204;2024-02-21T06:16:46;18.98;;;15.45;;
10007;SDS011;5043;41.766;26.204;2024-02-21T06:19:12;21.80;;;18.13;;
10007;SDS011;5043;41.766;26.204;2024-02-21T06:21:37;27.42;;;18.27;;
10007;SDS011;5043;41.766;26.204;2024-02-21T06:24:03;27.83;;;18.35;;
10007;SDS011;5043;41.766;26.204;2024-02-21T06:26:29;28.05;;;20.70;;
10007;SDS011;5043;41.766;26.204;2024-02-21T06:28:54;32.67;;;25.30;;
10007;SDS011;5043;41.766;26.204;2024-02-21T06:31:19;32.78;;;23.10;;
10007;SDS011;5043;41.766;26.204;2024-02-21T06:33:45;30.98;;;21.15;;
10007;SDS011;5043;41.766;26.204;2024-02-21T06:36:10;27.83;;;21.27;;
10007;SDS011;5043;41.766;26.204;2024-02-21T06:38:36;35.42;;;22.30;;
10007;SDS011;5043;41.766;26.204;2024-02-21T06:41:01;34.53;;;23.33;;
10007;SDS011;5043;41.766;26.204;2024-02-21T06:43:27;49.83;;;33.10;;
10007;SDS011;5043;41.766;26.204;2024-02-21T06:45:53;56.67;;;35.08;;
10007;SDS011;5043;41.766;26.204;2024-02-21T06:48:20;61.90;;;37.78;;
10007;SDS011;5043;41.766;26.204;2024-02-21T06:50:45;57.75;;;34.65;;
10007;SDS011;5043;41.766;26.204;2024-02-21T06:53:11;60.95;;;36.85;;
10007;SDS011;5043;41.766;26.204;2024-02-21T06:55:37;54.75;;;36.67;;
10007;SDS011;5043;41.766;26.204;2024-02-21T06:58:02;78.32;;;40.38;;
10007;SDS011;5043;41.766;26.204;2024-02-21T07:00:28;62.08;;;37.47;;
10007;SDS011;5043;41.766;26.204;2024-02-21T07:02:54;73.22;;;43.75;;
10007;SDS011;5043;41.766;26.204;2024-02-21T07:05:20;62.53;;;38.65;;
10007;SDS011;5043;41.766;26.204;2024-02-21T07:07:46;58.88;;;38.75;;
10007;SDS011;5043;41.766;26.204;2024-02-21T07:10:11;55.83;;;34.65;;
10007;SDS011;5043;41.766;26.204;2024-02-21T07:12:37;54.78;;;36.53;;
10007;SDS011;5043;41.766;26.204;2024-02-21T07:15:08;58.40;;;36.05;;
10007;SDS011;5043;41.766;26.204;2024-02-21T07:17:34;55.17;;;36.95;;
10007;SDS011;5043;41.766;26.204;2024-02-21T07:19:59;53.33;;;37.08;;
10007;SDS011;5043;41.766;26.204;2024-02-21T07:22:26;55.28;;;37.28;;
10007;SDS011;5043;41.766;26.204;2024-02-21T07:24:51;41.08;;;30.08;;
10007;SDS011;5043;41.766;26.204;2024-02-21T07:27:17;44.60;;;29.90;;
10007;SDS011;5043;41.766;26.204;2024-02-21T07:29:42;31.38;;;24.02;;
10007;SDS011;5043;41.766;26.204;2024-02-21T07:32:12;31.00;;;24.92;;
10007;SDS011;5043;41.766;26.204;2024-02-21T07:34:38;32.03;;;23.55;;
10007;SDS011;5043;41.766;26.204;2024-02-21T07:37:03;34.38;;;24.00;;
10007;SDS011;5043;41.766;26.204;2024-02-21T07:39:29;30.13;;;22.20;;
10007;SDS011;5043;41.766;26.204;2024-02-21T07:41:54;22.58;;;18.77;;
10007;SDS011;5043;41.766;26.204;2024-02-21T07:44:19;23.20;;;19.00;;
10007;SDS011;5043;41.766;26.204;2024-02-21T07:46:45;26.67;;;18.98;;
10007;SDS011;5043;41.766;26.204;2024-02-21T07:49:10;23.05;;;18.70;;
10007;SDS011;5043;41.766;26.204;2024-02-21T07:51:36;27.33;;;20.67;;
10007;SDS011;5043;41.766;26.204;2024-02-21T07:54:01;25.00;;;18.77;;
10007;SDS011;5043;41.766;26.204;2024-02-21T07:56:29;33.22;;;23.63;;
10007;SDS011;5043;41.766;26.204;2024-02-21T07:58:55;32.97;;;23.23;;
10007;SDS011;5043;41.766;26.204;2024-02-21T08:01:20;32.45;;;24.42;;
10007;SDS011;5043;41.766;26.204;2024-02-21T08:03:46;30.92;;;22.25;;
10007;SDS011;5043;41.766;26.204;2024-02-21T08:06:12;24.60;;;19.23;;
10007;SDS011;5043;41.766;26.204;2024-02-21T08:08:39;37.03;;;20.08;;
10007;SDS011;5043;41.766;26.204;2024-02-21T08:11:05;25.40;;;19.02;;
10007;SDS011;5043;41.766;26.204;2024-02-21T08:13:30;27.00;;;19.48;;
10007;SDS011;5043;41.766;26.204;2024-02-21T08:15:56;28.38;;;18.95;;
10007;SDS011;5043;41.766;26.204;2024-02-21T08:18:22;23.30;;;18.08;;
10007;SDS011;5043;41.766;26.204;2024-02-21T08:20:48;23.52;;;16.80;;
10007;SDS011;5043;41.766;26.204;2024-02-21T08:23:18;21.45;;;17.73;;
10007;SDS011;5043;41.766;26.204;2024-02-21T08:25:44;19.98;;;16.10;;
10007;SDS011;5043;41.766;26.204;2024-02-21T08:28:10;20.73;;;16.13;;
10007;SDS011;5043;41.766;26.204;2024-02-21T08:30:36;23.10;;;16.40;;
10007;SDS011;5043;41.766;26.204;2024-02-21T08:33:02;21.60;;;15.82;;
10007;SDS011;5043;41.766;26.204;2024-02-21T08:35:29;18.50;;;15.40;;
10007;SDS011;5043;41.766;26.204;2024-02-21T08:37:55;20.60;;;16.48;;
10007;SDS011;5043;41.766;26.204;2024-02-21T08:40:20;21.63;;;16.15;;
10007;SDS011;5043;41.766;26.204;2024-02-21T08:42:46;19.17;;;15.73;;
10007;SDS011;5043;41.766;26.204;2024-02-21T08:45:12;20.38;;;16.67;;
10007;SDS011;5043;41.766;26.204;2024-02-21T08:47:39;17.90;;;15.13;;
10007;SDS011;5043;41.766;26.204;2024-02-21T08:50:06;22.80;;;16.17;;
10007;SDS011;5043;41.766;26.204;2024-02-21T08:52:32;25.33;;;18.33;;
10007;SDS011;5043;41.766;26.204;2024-02-21T08:54:58;23.85;;;17.25;;
10007;SDS011;5043;41.766;26.204;2024-02-21T08:57:24;21.60;;;15.30;;
10007;SDS011;5043;41.766;26.204;2024-02-21T08:59:49;22.75;;;15.75;;
10007;SDS011;5043;41.766;26.204;2024-02-21T09:02:15;17.27;;;14.50;;
10007;SDS011;5043;41.766;26.204;2024-02-21T09:04:44;22.60;;;17.13;;
10007;SDS011;5043;41.766;26.204;2024-02-21T09:07:10;20.17;;;15.82;;
10007;SDS011;5043;41.766;26.204;2024-02-21T09:09:36;19.20;;;15.20;;
10007;SDS011;5043;41.766;26.204;2024-02-21T09:12:04;17.67;;;15.00;;
10007;SDS011;5043;41.766;26.204;2024-02-21T09:14:33;19.75;;;14.93;;
10007;SDS011;5043;41.766;26.204;2024-02-21T09:17:00;21.65;;;15.38;;
10007;SDS011;5043;41.766;26.204;2024-02-21T09:19:26;18.02;;;15.60;;
10007;SDS011;5043;41.766;26.204;2024-02-21T09:21:51;20.52;;;16.17;;
10007;SDS011;5043;41.766;26.204;2024-02-21T09:24:17;17.15;;;14.82;;
10007;SDS011;5043;41.766;26.204;2024-02-21T09:26:43;20.30;;;16.73;;
10007;SDS011;5043;41.766;26.204;2024-02-21T09:29:09;18.40;;;15.43;;
10007;SDS011;5043;41.766;26.204;2024-02-21T09:31:35;19.77;;;15.95;;
10007;SDS011;5043;41.766;26.204;2024-02-21T09:34:01;24.40;;;16.27;;
10007;SDS011;5043;41.766;26.204;2024-02-21T09:36:28;20.00;;;15.30;;
10007;SDS011;5043;41.766;26.204;2024-02-21T09:38:53;19.90;;;16.63;;
10007;SDS011;5043;41.766;26.204;2024-02-21T09:41:26;17.38;;;14.75;;
10007;SDS011;5043;41.766;26.204;2024-02-21T09:43:55;17.17;;;15.15;;
10007;SDS011;5043;41.766;26.204;2024-02-21T09:46:30;22.60;;;16.17;;
10007;SDS011;5043;41.766;26.204;2024-02-21T09:49:31;19.30;;;15.95;;
10007;SDS011;5043;41.766;26.204;2024-02-21T09:52:00;21.80;;;14.95;;
10007;SDS011;5043;41.766;26.204;2024-02-21T09:54:29;19.00;;;14.32;;
10007;SDS011;5043;41.766;26.204;2024-02-21T09:57:03;18.52;;;14.30;;
10007;SDS011;5043;41.766;26.204;2024-02-21T09:59:31;17.77;;;14.73;;
10007;SDS011;5043;41.766;26.204;2024-02-21T10:01:58;21.30;;;16.05;;
10007;SDS011;5043;41.766;26.204;2024-02-21T10:04:31;19.63;;;16.15;;
10007;SDS011;5043;41.766;26.204;2024-02-21T10:06:57;19.25;;;15.45;;
10007;SDS011;5043;41.766;26.204;2024-02-21T10:11:50;18.23;;;16.17;;
10007;SDS011;5043;41.766;26.204;2024-02-21T10:14:16;16.55;;;14.57;;
10007;SDS011;5043;41.766;26.204;2024-02-21T10:16:43;19.02;;;15.35;;
10007;SDS011;5043;41.766;26.204;2024-02-21T10:19:19;22.48;;;14.30;;
10007;SDS011;5043;41.766;26.204;2024-02-21T10:22:07;21.40;;;16.30;;
10007;SDS011;5043;41.766;26.204;2024-02-21T10:24:34;20.88;;;15.75;;
10007;SDS011;5043;41.766;26.204;2024-02-21T10:27:03;21.27;;;18.52;;
10007;SDS011;5043;41.766;26.204;2024-02-21T10:29:33;19.52;;;15.20;;
10007;SDS011;5043;41.766;26.204;2024-02-21T10:32:06;19.80;;;15.98;;
10007;SDS011;5043;41.766;26.204;2024-02-21T10:34:37;18.92;;;15.30;;
10007;SDS011;5043;41.766;26.204;2024-02-21T10:37:04;17.67;;;15.00;;
10007;SDS011;5043;41.766;26.204;2024-02-21T10:39:42;18.80;;;16.65;;
10007;SDS011;5043;41.766;26.204;2024-02-21T10:42:12;16.13;;;14.38;;
10007;SDS011;5043;41.766;26.204;2024-02-21T10:44:41;17.67;;;14.77;;
10007;SDS011;5043;41.766;26.204;2024-02-21T10:47:07;16.77;;;13.73;;
10007;SDS011;5043;41.766;26.204;2024-02-21T10:49:37;15.68;;;14.10;;
10007;SDS011;5043;41.766;26.204;2024-02-21T10:52:31;15.45;;;13.35;;
10007;SDS011;5043;41.766;26.204;2024-02-21T10:55:14;16.17;;;14.48;;
10007;SDS011;5043;41.766;26.204;2024-02-21T10:57:48;16.73;;;13.98;;
10007;SDS011;5043;41.766;26.204;2024-02-21T11:00:15;18.50;;;14.98;;
10007;SDS011;5043;41.766;26.204;2024-02-21T11:02:43;15.02;;;12.98;;
10007;SDS011;5043;41.766;26.204;2024-02-21T11:05:10;16.00;;;13.75;;
10007;SDS011;5043;41.766;26.204;2024-02-21T11:07:37;13.93;;;12.32;;
10007;SDS011;5043;41.766;26.204;2024-02-21T11:10:03;16.55;;;11.70;;
10007;SDS011;5043;41.766;26.204;2024-02-21T11:12:32;15.55;;;13.13;;
10007;SDS011;5043;41.766;26.204;2024-02-21T11:15:07;16.15;;;12.73;;
10007;SDS011;5043;41.766;26.204;2024-02-21T11:17:33;17.70;;;14.15;;
10007;SDS011;5043;41.766;26.204;2024-02-21T11:20:10;15.20;;;13.50;;
10007;SDS011;5043;41.766;26.204;2024-02-21T11:22:47;18.00;;;13.57;;
10007;SDS011;5043;41.766;26.204;2024-02-21T11:25:20;15.52;;;13.18;;
10007;SDS011;5043;41.766;26.204;2024-02-21T11:27:47;17.50;;;13.00;;
10007;SDS011;5043;41.766;26.204;2024-02-21T11:30:12;13.35;;;11.30;;
10007;SDS011;5043;41.766;26.204;2024-02-21T11:32:39;13.20;;;11.55;;
10007;SDS011;5043;41.766;26.204;2024-02-21T11:35:06;12.77;;;11.50;;
10007;SDS011;5043;41.766;26.204;2024-02-21T11:37:32;18.27;;;13.57;;
10007;SDS011;5043;41.766;26.204;2024-02-21T11:40:03;11.95;;;10.52;;
10007;SDS011;5043;41.766;26.204;2024-02-21T11:42:29;14.57;;;12.00;;
10007;SDS011;5043;41.766;26.204;2024-02-21T11:44:56;14.35;;;11.68;;
10007;SDS011;5043;41.766;26.204;2024-02-21T11:47:22;12.70;;;11.07;;
10007;SDS011;5043;41.766;26.204;2024-02-21T11:49:49;14.23;;;11.80;;
10007;SDS011;5043;41.766;26.204;2024-02-21T11:52:19;13.95;;;11.13;;
10007;SDS011;5043;41.766;26.204;2024-02-21T11:54:50;12.70;;;11.05;;
10007;SDS011;5043;41.766;26.204;2024-02-21T11:57:17;13.95;;;12.02;;
10007;SDS011;5043;41.766;26.204;2024-02-21T11:59:44;13.88;;;11.85;;
10007;SDS011;5043;41.766;26.204;2024-02-21T12:02:11;15.60;;;11.35;;
10007;SDS011;5043;41.766;26.204;2024-02-21T12:04:37;12.48;;;11.18;;
10007;SDS011;5043;41.766;26.204;2024-02-21T12:07:03;16.27;;;12.90;;
10007;SDS011;5043;41.766;26.204;2024-02-21T12:09:29;17.63;;;12.57;;
10007;SDS011;5043;41.766;26.204;2024-02-21T12:14:31;13.50;;;11.63;;
10007;SDS011;5043;41.766;26.204;2024-02-21T12:16:58;13.05;;;10.93;;
10007;SDS011;5043;41.766;26.204;2024-02-21T12:19:25;17.55;;;12.30;;
10007;SDS011;5043;41.766;26.204;2024-02-21T12:21:51;12.70;;;11.40;;
10007;SDS011;5043;41.766;26.204;2024-02-21T12:24:25;15.40;;;13.82;;
10007;SDS011;5043;41.766;26.204;2024-02-21T12:26:52;11.60;;;10.45;;
10007;SDS011;5043;41.766;26.204;2024-02-21T12:29:19;12.65;;;9.65;;
10007;SDS011;5043;41.766;26.204;2024-02-21T12:31:45;13.88;;;12.38;;
10007;SDS011;5043;41.766;26.204;2024-02-21T12:34:11;11.93;;;10.65;;
10007;SDS011;5043;41.766;26.204;2024-02-21T12:36:46;12.73;;;10.68;;
10007;SDS011;5043;41.766;26.204;2024-02-21T12:39:12;12.63;;;11.30;;
10007;SDS011;5043;41.766;26.204;2024-02-21T12:41:38;10.80;;;9.70;;
10007;SDS011;5043;41.766;26.204;2024-02-21T12:44:08;11.95;;;10.30;;
10007;SDS011;5043;41.766;26.204;2024-02-21T12:46:36;13.05;;;10.73;;
10007;SDS011;5043;41.766;26.204;2024-02-21T12:49:02;12.90;;;11.35;;
10007;SDS011;5043;41.766;26.204;2024-02-21T12:51:29;14.05;;;12.13;;
10007;SDS011;5043;41.766;26.204;2024-02-21T12:53:56;13.48;;;11.50;;
10007;SDS011;5043;41.766;26.204;2024-02-21T12:56:22;23.30;;;12.48;;
10007;SDS011;5043;41.766;26.204;2024-02-21T12:58:47;14.20;;;12.45;;
10007;SDS011;5043;41.766;26.204;2024-02-21T13:01:13;13.32;;;11.93;;
10007;SDS011;5043;41.766;26.204;2024-02-21T13:03:39;13.40;;;11.27;;
10007;SDS011;5043;41.766;26.204;2024-02-21T13:06:05;13.07;;;11.60;;
10007;SDS011;5043;41.766;26.204;2024-02-21T13:08:38;15.05;;;12.27;;
10007;SDS011;5043;41.766;26.204;2024-02-21T13:11:05;16.52;;;12.55;;
10007;SDS011;5043;41.766;26.204;2024-02-21T13:13:31;23.45;;;12.68;;
10007;SDS011;5043;41.766;26.204;2024-02-21T13:15:57;15.75;;;12.38;;
10007;SDS011;5043;41.766;26.204;2024-02-21T13:18:23;13.02;;;11.63;;
10007;SDS011;5043;41.766;26.204;2024-02-21T13:20:49;12.57;;;11.25;;
10007;SDS011;5043;41.766;26.204;2024-02-21T13:23:15;11.48;;;10.25;;
10007;SDS011;5043;41.766;26.204;2024-02-21T13:25:41;12.80;;;11.07;;
10007;SDS011;5043;41.766;26.204;2024-02-21T13:28:07;13.00;;;10.77;;
10007;SDS011;5043;41.766;26.204;2024-02-21T13:30:34;19.67;;;15.35;;
10007;SDS011;5043;41.766;26.204;2024-02-21T13:33:00;15.43;;;11.88;;
10007;SDS011;5043;41.766;26.204;2024-02-21T13:35:28;17.40;;;12.05;;
10007;SDS011;5043;41.766;26.204;2024-02-21T13:37:54;14.25;;;11.23;;
10007;SDS011;5043;41.766;26.204;2024-02-21T13:40:21;11.93;;;10.60;;
10007;SDS011;5043;41.766;26.204;2024-02-21T13:42:46;14.82;;;10.52;;
10007;SDS011;5043;41.766;26.204;2024-02-21T13:45:12;19.33;;;13.13;;
10007;SDS011;5043;41.766;26.204;2024-02-21T13:47:39;21.90;;;19.13;;
10007;SDS011;5043;41.766;26.204;2024-02-21T13:50:05;13.90;;;11.68;;
10007;SDS011;5043;41.766;26.204;2024-02-21T13:52:36;12.40;;;11.10;;
10007;SDS011;5043;41.766;26.204;2024-02-21T13:55:02;12.02;;;10.80;;
10007;SDS011;5043;41.766;26.204;2024-02-21T13:57:28;15.57;;;10.90;;
10007;SDS011;5043;41.766;26.204;2024-02-21T13:59:54;14.55;;;10.63;;
10007;SDS011;5043;41.766;26.204;2024-02-21T14:02:20;14.73;;;10.60;;
10007;SDS011;5043;41.766;26.204;2024-02-21T14:04:46;11.88;;;10.57;;
10007;SDS011;5043;41.766;26.204;2024-02-21T14:07:12;12.68;;;10.93;;
10007;SDS011;5043;41.766;26.204;2024-02-21T14:09:38;13.65;;;10.70;;
10007;SDS011;5043;41.766;26.204;2024-02-21T14:12:04;11.30;;;10.10;;
10007;SDS011;5043;41.766;26.204;2024-02-21T14:14:33;11.02;;;9.75;;
10007;SDS011;5043;41.766;26.204;2024-02-21T14:17:01;12.63;;;9.90;;
10007;SDS011;5043;41.766;26.204;2024-02-21T14:19:27;11.95;;;9.68;;
10007;SDS011;5043;41.766;26.204;2024-02-21T14:21:53;11.30;;;10.10;;
10007;SDS011;5043;41.766;26.204;2024-02-21T14:24:19;12.38;;;11.07;;
10007;SDS011;5043;41.766;26.204;2024-02-21T14:26:45;13.50;;;11.77;;